Airfield :
LOGIN :

Register | Disclaimer

   EN    FR    IT 

 










Legend :    VFR   Marginal VFR   IFR   Intensive IFR   Very Intensive IFR
Visi :
Ceiling :
>= 8 km
>= 3000ft
5 to 8 km
1000 to 3000 ft
1500m to 5 km
500 to 1000 ft
800 to 1500m
200 to 500 ft
< 800m
< 200 ft
Symbols :   Thunderstorms  Fog  Heavy snow  Heavy precipitations  Wind > 20 kt
SIGMETs :     Misc.  Thunderstorms  Icing  Turbulence  Mountain Waves  Volcanic Ashes







- Airport Elevation : 39 ft
- IATA code : ANR


EBAW - Anvers / Antwerpen Deurne

CURRENT METAR :
  • 231420Z 36008KT 320V040 9000 -RA SCT008 BKN011 11/10 Q1013 NOSIG

EXPIRED METARs :
  • 231350Z 01008KT 340V040 9999 SCT007 BKN011 12/10 Q1013 BECMG SCT012 BKN040
  • 231320Z 36008KT 9999 -RA SCT007 BKN011 12/11 Q1012 BECMG SCT012 BKN040
  • 231250Z 35009KT 320V020 9999 -RA SCT008 BKN012 12/10 Q1012 BECMG SCT012 BKN030
  • 231220Z 01009KT 320V040 9000 -RA SCT008 BKN012 11/11 Q1011 BECMG SCT012 BKN030
  • 231150Z 01009KT 340V040 7000 -RA SCT004 BKN007 11/10 Q1010 REDZ TEMPO 4500 RADZ BKN004

TAF TAF EBAW
Valid from the 23 at 15:00 until the 24 at 00:00 UTC


231405Z 2315/2324 34008KT 9999 SCT015TCU BKN040
TEMPO 2315/2317 3500 RA BKN008
PROB40
TEMPO 2317/2324 4000 SHRA
No reported NOTAMs for that airfield.
1 SIGMET reported for the Brussels FIR (EBBU) :
 
Severe turbulence
EBBU SIGMET 01 VALID 231322/231430 EBBR
EBBU BRUSSELS FIR SEV TURB OBS SE OF LINE N4930 E0530- N5010 E0615 FL330/350 MOV E20KT INTSF=



MET'MAP, your aeronautical weather chart ! - Copyright ORBIFLY December 2007 - Disclaimer

ORBIFLY MET'MAP TEAM :

Programming & Development : Alexandra Zaïnal
Concept & Development : Baudouin d'Aumeries
Co-Development & Prog : Marc-Olivier Méhu
Technical & hardware support : Manuel Goepfert

Contact : metmap@orbifly.com




SOURCES & CREDITS :

   NOAA